クイアバ の空港の天気 - METARとTAF

クイアバ空港 ( SBCY / CGB ) - ブラジル マットグロッソ州クイアバ
飛行場実況気象(Metar)
観測時間05/25 20:00 AMT (05/26 00:00 UTC)
風向・風速北東 2m/s
視程10km以上
天気現象
なし
気温27℃
湿度62%
気圧1015hPa
METARSBCY 260000Z 05003KT CAVOK 27/19 Q1015
過去の天気等 Google飛行場航空写真 Wunderground天気予報

過去48時間のMETAR

飛行場予報(TAF)
発表時間: 5/25 17:33 AMT (5/25 21:33 UTC)
予報対象時間: 25日20時 AMT ~ 26日20時 AMT
風向・風速北西 3m/s
視程10km以上
なし
26日9時 AMT ~ 26日12時 AMT に徐々に
風向・風速北 4m/s
26日16時 AMT ~ 26日19時 AMT に徐々に
風向・風速南南東 3m/s
TAF SBCY 252133Z 2600/2624 31005KT CAVOK TN19/2610Z TX34/2619Z
BECMG 2613/2616 35007KT
BECMG 2620/2623 15005KT RMK PHC